Time;durP1;ratioP1;P1;durP2;ratioP2;P2;SDS_P1;SDS_P2;PMS_P1;PMS_P2;Temp;Humidity;BMP_temperature;BMP_pressure;BME280_temperature;BME280_humidity;BME280_pressure;Samples;Min_cycle;Max_cycle;Signal;HPM_P1;HPM_P2
2021/10/26 06:01:40;;;;;;;27.58;3.83;;;13.80;99.90;;;;;;6190559;23;20217;-81
2021/10/26 06:04:07;;;;;;;26.88;3.55;;;13.90;99.90;;;;;;6240717;23;20031;-81
2021/10/26 06:06:35;;;;;;;30.60;4.70;;;13.90;99.90;;;;;;6216236;23;20027;-82
2021/10/26 06:09:02;;;;;;;23.57;3.23;;;13.90;99.90;;;;;;6243004;23;20409;-81
2021/10/26 06:11:30;;;;;;;31.13;4.13;;;13.90;99.90;;;;;;6241713;23;20016;-82
2021/10/26 06:14:04;;;;;;;34.35;4.25;;;14.00;99.90;;;;;;6242407;23;20093;-80
2021/10/26 06:16:33;;;;;;;33.25;4.13;;;14.00;99.90;;;;;;6242365;23;20466;-82
2021/10/26 06:19:00;;;;;;;26.50;3.75;;;14.00;99.90;;;;;;6243260;23;20020;-82
2021/10/26 06:21:27;;;;;;;29.98;3.90;;;14.00;99.90;;;;;;6241927;23;20024;-82
2021/10/26 06:23:56;;;;;;;30.73;4.18;;;14.00;99.90;;;;;;6242711;23;20047;-82
2021/10/26 06:26:23;;;;;;;22.38;3.53;;;14.00;99.90;;;;;;6241749;23;20016;-81
2021/10/26 06:28:51;;;;;;;27.67;4.15;;;14.10;99.90;;;;;;6242705;23;20020;-81
2021/10/26 06:31:17;;;;;;;38.42;5.18;;;14.10;99.90;;;;;;6241596;23;20482;-81
2021/10/26 06:33:45;;;;;;;23.05;3.65;;;14.00;99.90;;;;;;6242279;23;20070;-82
2021/10/26 06:36:12;;;;;;;32.60;4.10;;;14.10;99.90;;;;;;6241296;23;20024;-81
2021/10/26 06:38:39;;;;;;;36.95;4.50;;;14.10;99.90;;;;;;6242148;23;20043;-81
2021/10/26 06:41:07;;;;;;;35.72;4.10;;;14.10;99.90;;;;;;6241615;23;20027;-81
2021/10/26 06:43:35;;;;;;;27.77;4.07;;;14.10;99.90;;;;;;6242628;23;20359;-82
2021/10/26 06:46:04;;;;;;;29.45;4.13;;;14.10;99.90;;;;;;6242530;23;20019;-80
2021/10/26 06:48:31;;;;;;;25.63;4.13;;;14.10;99.90;;;;;;6242349;23;20023;-82
2021/10/26 06:50:58;;;;;;;33.10;4.07;;;14.10;99.90;;;;;;6242635;23;20020;-81
2021/10/26 06:53:25;;;;;;;29.30;4.10;;;14.10;99.90;;;;;;6241501;23;20016;-82
2021/10/26 06:55:53;;;;;;;29.75;3.30;;;14.10;99.90;;;;;;6215523;23;20016;-81
2021/10/26 06:58:20;;;;;;;33.23;3.67;;;14.10;99.90;;;;;;6241840;23;20027;-81
2021/10/26 07:00:47;;;;;;;27.63;4.22;;;14.10;99.90;;;;;;6241363;23;20247;-82
2021/10/26 07:03:14;;;;;;;35.35;4.30;;;14.20;99.90;;;;;;6241877;23;20031;-82
2021/10/26 07:05:42;;;;;;;32.67;4.18;;;14.20;99.90;;;;;;6243174;23;20078;-82
2021/10/26 07:08:09;;;;;;;33.50;4.13;;;14.20;99.90;;;;;;6241336;23;20340;-82
2021/10/26 07:10:36;;;;;;;21.48;3.92;;;14.20;99.90;;;;;;6217740;23;20438;-84
2021/10/26 07:13:03;;;;;;;25.90;3.80;;;14.20;99.90;;;;;;6243273;23;20081;-83
2021/10/26 07:15:32;;;;;;;36.20;3.85;;;14.20;99.90;;;;;;6243931;23;20247;-82
2021/10/26 07:18:00;;;;;;;24.33;3.80;;;14.30;99.90;;;;;;6217379;23;20016;-83
2021/10/26 07:20:27;;;;;;;22.73;4.22;;;14.30;99.90;;;;;;6243203;23;20090;-83
2021/10/26 07:22:54;;;;;;;31.98;4.03;;;14.30;99.90;;;;;;6243958;23;20218;-83
2021/10/26 07:25:22;;;;;;;34.25;4.38;;;14.30;99.90;;;;;;6243117;23;20020;-83
2021/10/26 07:27:52;;;;;;;26.53;3.77;;;14.30;99.90;;;;;;6244062;23;20020;-84
2021/10/26 07:30:19;;;;;;;27.80;4.35;;;14.30;99.90;;;;;;6216073;23;20074;-83
2021/10/26 07:32:46;;;;;;;26.35;4.07;;;14.30;99.90;;;;;;6215993;23;20020;-83
2021/10/26 07:35:14;;;;;;;30.30;4.72;;;14.40;99.90;;;;;;6242001;23;20074;-85
2021/10/26 07:37:44;;;;;;;36.50;4.35;;;14.40;99.90;;;;;;6242208;23;20083;-83
2021/10/26 07:40:12;;;;;;;23.23;4.03;;;14.40;99.90;;;;;;6241880;23;20486;-84
2021/10/26 07:42:43;;;;;;;27.52;4.13;;;14.40;99.90;;;;;;6242586;23;20012;-83
2021/10/26 07:45:10;;;;;;;27.63;5.15;;;14.40;99.90;;;;;;6241489;23;20474;-85
2021/10/26 07:47:38;;;;;;;25.25;5.07;;;14.40;99.90;;;;;;6242250;23;20069;-84
2021/10/26 07:50:07;;;;;;;29.63;5.13;;;14.50;99.90;;;;;;6242484;23;20016;-85
2021/10/26 07:52:35;;;;;;;26.73;4.57;;;14.50;99.90;;;;;;6241398;23;20020;-84
2021/10/26 07:55:04;;;;;;;26.97;5.17;;;14.50;99.90;;;;;;6242658;23;20024;-84
2021/10/26 07:57:31;;;;;;;32.00;4.47;;;14.50;99.90;;;;;;6234603;23;20023;-85
2021/10/26 07:59:58;;;;;;;26.88;4.13;;;14.50;99.90;;;;;;6242312;23;20024;-85
2021/10/26 08:02:26;;;;;;;33.15;4.85;;;14.60;99.90;;;;;;6241482;23;20027;-84
2021/10/26 08:04:55;;;;;;;31.77;4.60;;;14.50;99.90;;;;;;6241812;23;20071;-85
2021/10/26 08:07:25;;;;;;;23.67;3.97;;;14.60;99.90;;;;;;6241124;23;20543;-85
2021/10/26 08:09:55;;;;;;;26.05;3.83;;;14.60;99.90;;;;;;6242262;23;20024;-85
2021/10/26 08:12:24;;;;;;;32.92;4.10;;;14.60;99.90;;;;;;6241339;23;20082;-84
2021/10/26 08:14:51;;;;;;;;;;;14.60;99.90;;;;;;6243089;23;20020;-85
2021/10/26 08:17:18;;;;;;;29.55;3.60;;;14.60;99.90;;;;;;6241156;23;20357;-85
2021/10/26 08:19:47;;;;;;;32.03;4.28;;;14.60;99.90;;;;;;6242378;23;20012;-85
2021/10/26 08:22:16;;;;;;;36.63;4.32;;;14.70;99.90;;;;;;6240963;23;20024;-84
2021/10/26 08:24:57;;;;;;;24.95;4.35;;;14.70;99.90;;;;;;6242064;23;20485;-84
2021/10/26 08:27:25;;;;;;;31.02;3.83;;;14.80;99.90;;;;;;6241730;23;20481;-85
2021/10/26 08:30:07;;;;;;;28.30;3.90;;;14.80;99.90;;;;;;6242140;23;20024;-84
2021/10/26 08:35:27;;;;;;;29.70;4.15;;;14.90;99.90;;;;;;6240762;23;20020;-84
2021/10/26 08:37:58;;;;;;;22.73;3.95;;;15.00;99.90;;;;;;6241968;23;20074;-84
2021/10/26 08:40:26;;;;;;;23.33;3.60;;;15.10;99.90;;;;;;6241490;23;20056;-84
2021/10/26 08:42:54;;;;;;;22.65;3.70;;;15.10;99.90;;;;;;6215184;23;20016;-84
2021/10/26 08:45:23;;;;;;;24.67;4.07;;;15.10;99.90;;;;;;6241563;23;20021;-84
2021/10/26 08:47:50;;;;;;;26.83;3.45;;;15.20;99.90;;;;;;6241963;23;20016;-84
2021/10/26 08:50:20;;;;;;;27.23;4.05;;;15.20;99.90;;;;;;6241371;23;20138;-84
2021/10/26 08:52:49;;;;;;;20.50;3.45;;;15.30;99.90;;;;;;6241816;23;20027;-84
2021/10/26 08:55:18;;;;;;;21.20;3.13;;;15.30;99.90;;;;;;6213679;23;20478;-84
2021/10/26 08:57:46;;;;;;;21.70;3.30;;;15.30;99.90;;;;;;6242513;23;20024;-83
2021/10/26 09:00:16;;;;;;;15.82;2.75;;;15.40;99.90;;;;;;6241021;23;20475;-84
2021/10/26 09:02:49;;;;;;;19.63;2.83;;;15.40;99.90;;;;;;6213961;23;20024;-85
2021/10/26 09:05:19;;;;;;;16.92;3.00;;;15.40;99.90;;;;;;6213877;23;20078;-85
2021/10/26 09:08:07;;;;;;;16.42;3.53;;;15.50;99.90;;;;;;6215140;23;20409;-83
2021/10/26 09:10:36;;;;;;;13.30;2.70;;;15.50;99.90;;;;;;6241247;23;20016;-85
2021/10/26 09:18:47;;;;;;;15.23;2.93;;;15.70;99.90;;;;;;6240748;23;20044;-83
2021/10/26 09:21:30;;;;;;;22.05;3.15;;;15.70;99.90;;;;;;6240691;23;20024;-85
2021/10/26 09:23:59;;;;;;;14.10;2.70;;;15.80;99.90;;;;;;6241790;23;20480;-84
2021/10/26 09:26:44;;;;;;;22.52;3.15;;;15.90;99.90;;;;;;6239435;23;20016;-84
2021/10/26 09:29:12;;;;;;;14.98;2.60;;;15.90;99.90;;;;;;6240203;23;20016;-84
2021/10/26 09:31:40;;;;;;;16.17;2.30;;;16.00;99.90;;;;;;6241320;23;20086;-84
2021/10/26 09:34:13;;;;;;;19.15;2.65;;;16.00;99.90;;;;;;6213986;23;20374;-84
2021/10/26 09:36:43;;;;;;;16.30;2.30;;;16.10;99.90;;;;;;6214362;23;20016;-84
2021/10/26 09:39:13;;;;;;;16.73;2.25;;;16.10;99.90;;;;;;6240658;23;20536;-85
2021/10/26 09:41:52;;;;;;;18.08;2.10;;;16.10;99.90;;;;;;6241322;23;20016;-85
2021/10/26 09:44:25;;;;;;;13.80;2.20;;;16.20;99.90;;;;;;6241300;23;20531;-84
2021/10/26 09:47:14;;;;;;;17.10;2.58;;;16.30;99.90;;;;;;6241240;23;20032;-85
2021/10/26 09:49:45;;;;;;;17.30;2.67;;;16.30;99.90;;;;;;6214526;23;20016;-83
2021/10/26 09:52:16;;;;;;;12.68;2.25;;;16.30;99.90;;;;;;6240704;23;20826;-85
2021/10/26 09:54:45;;;;;;;18.02;2.47;;;16.30;99.90;;;;;;6241028;23;20016;-84
2021/10/26 09:57:13;;;;;;;;;;;16.40;99.90;;;;;;6241133;23;20024;-84
2021/10/26 09:59:52;;;;;;;13.02;2.35;;;16.40;99.90;;;;;;6241653;23;19916;-83
2021/10/26 10:02:25;;;;;;;12.88;2.30;;;16.50;99.90;;;;;;6239783;23;20413;-84
2021/10/26 10:05:00;;;;;;;15.10;2.30;;;16.50;99.90;;;;;;6241567;23;20085;-83
2021/10/26 10:07:30;;;;;;;13.35;2.25;;;16.50;99.90;;;;;;6244001;23;20389;-84
2021/10/26 10:10:11;;;;;;;15.93;2.63;;;16.60;99.90;;;;;;6246556;23;20478;-83
2021/10/26 10:12:39;;;;;;;12.55;2.08;;;16.60;99.90;;;;;;6246947;23;20058;-84
2021/10/26 10:15:08;;;;;;;17.07;2.30;;;16.60;99.90;;;;;;6246402;23;20020;-84
2021/10/26 10:17:36;;;;;;;13.82;2.05;;;16.70;99.90;;;;;;6247640;23;20024;-83
2021/10/26 10:20:10;;;;;;;11.35;1.95;;;16.70;99.90;;;;;;6247951;23;20074;-83
2021/10/26 10:22:41;;;;;;;13.95;1.92;;;16.80;99.90;;;;;;6245705;23;20013;-83
2021/10/26 10:25:10;;;;;;;13.25;2.22;;;16.80;99.90;;;;;;6246762;23;20044;-84
2021/10/26 10:27:40;;;;;;;16.88;1.88;;;16.90;99.90;;;;;;6245460;23;20050;-84
2021/10/26 10:30:09;;;;;;;16.75;2.58;;;16.90;99.90;;;;;;6241012;23;20027;-84
2021/10/26 10:32:38;;;;;;;17.60;2.88;;;17.00;99.90;;;;;;6242394;23;20016;-85
2021/10/26 10:35:12;;;;;;;13.27;2.47;;;17.10;99.90;;;;;;6242475;23;20390;-85
2021/10/26 10:37:42;;;;;;;15.77;2.13;;;17.20;99.90;;;;;;6240939;23;20486;-85
2021/10/26 10:40:10;;;;;;;13.98;2.45;;;17.20;99.90;;;;;;6214609;23;20035;-83
2021/10/26 10:42:51;;;;;;;11.70;2.25;;;17.20;99.90;;;;;;6217620;23;20070;-83
2021/10/26 10:45:25;;;;;;;11.82;1.80;;;17.20;99.90;;;;;;6242171;23;20024;-84
2021/10/26 10:47:55;;;;;;;10.02;2.03;;;17.20;99.90;;;;;;6241192;23;20111;-84
2021/10/26 10:50:25;;;;;;;10.23;1.90;;;17.20;99.90;;;;;;6216847;23;20020;-85
2021/10/26 10:53:14;;;;;;;9.60;1.73;;;17.20;99.90;;;;;;6243115;23;20452;-85
2021/10/26 10:56:10;;;;;;;11.95;2.17;;;17.20;99.90;;;;;;6220046;23;20020;-83
2021/10/26 10:58:42;;;;;;;12.77;1.92;;;17.30;99.90;;;;;;6243058;23;20073;-85
2021/10/26 11:01:36;;;;;;;9.90;1.83;;;17.30;99.90;;;;;;6241896;23;20057;-84
2021/10/26 11:04:18;;;;;;;13.77;2.22;;;17.30;99.90;;;;;;6243035;23;20031;-85
2021/10/26 11:06:45;;;;;;;13.98;2.03;;;17.30;99.90;;;;;;6243266;23;20016;-84
2021/10/26 11:09:38;;;;;;;12.00;1.80;;;17.30;99.90;;;;;;6242281;23;20690;-85
2021/10/26 11:12:20;;;;;;;10.05;2.17;;;17.40;99.90;;;;;;6226845;23;20016;-83
2021/10/26 11:14:49;;;;;;;10.38;1.70;;;17.40;99.90;;;;;;6242650;23;20478;-84
2021/10/26 11:17:35;;;;;;;10.20;1.77;;;17.40;99.90;;;;;;6242140;23;20020;-84
2021/10/26 11:20:06;;;;;;;9.63;1.85;;;17.50;99.90;;;;;;6243039;23;20028;-85
2021/10/26 11:22:45;;;;;;;9.18;1.45;;;17.50;99.90;;;;;;6243042;23;20020;-86
2021/10/26 11:25:20;;;;;;;10.77;2.05;;;17.50;99.90;;;;;;6242240;23;20078;-86
2021/10/26 11:27:48;;;;;;;12.38;2.17;;;17.50;99.90;;;;;;6243946;23;20012;-85
2021/10/26 11:30:36;;;;;;;10.48;1.55;;;17.50;99.90;;;;;;6214883;23;20024;-85
2021/10/26 11:33:08;;;;;;;9.65;1.55;;;17.50;99.90;;;;;;6242921;23;20024;-85
2021/10/26 11:35:49;;;;;;;8.55;1.63;;;17.50;99.90;;;;;;6242634;23;20074;-85
2021/10/26 11:38:41;;;;;;;11.18;2.17;;;17.50;99.90;;;;;;6242091;23;20074;-84
2021/10/26 11:41:30;;;;;;;9.93;1.75;;;17.50;99.90;;;;;;6242714;23;20103;-86
2021/10/26 11:44:05;;;;;;;10.82;1.83;;;17.60;99.90;;;;;;6215976;23;20017;-85
2021/10/26 11:46:38;;;;;;;6.88;1.50;;;17.60;99.90;;;;;;6215975;23;20020;-86
2021/10/26 11:49:07;;;;;;;11.02;1.80;;;17.60;99.90;;;;;;6242294;23;20410;-84
2021/10/26 11:51:38;;;;;;;8.90;2.05;;;17.60;99.90;;;;;;6242314;23;20366;-85
2021/10/26 11:54:08;;;;;;;11.30;1.60;;;17.70;99.90;;;;;;6242192;23;20070;-84
2021/10/26 11:56:38;;;;;;;12.85;2.05;;;17.60;99.90;;;;;;6242844;23;20074;-85
2021/10/26 11:59:08;;;;;;;11.73;1.50;;;17.60;99.90;;;;;;6241724;23;20020;-84
2021/10/26 12:01:50;;;;;;;9.15;1.70;;;17.60;99.90;;;;;;6241871;23;20070;-84
2021/10/26 12:04:24;;;;;;;9.45;1.75;;;17.60;99.90;;;;;;6242065;23;20028;-84
2021/10/26 12:07:03;;;;;;;7.97;1.58;;;17.60;99.90;;;;;;6242127;23;20327;-84
2021/10/26 12:09:32;;;;;;;14.52;2.25;;;17.70;99.90;;;;;;6215343;23;20470;-85
2021/10/26 12:12:06;;;;;;;9.18;1.52;;;17.70;99.90;;;;;;6241981;23;20460;-84
2021/10/26 12:14:36;;;;;;;10.93;2.13;;;17.60;99.90;;;;;;6216177;23;20415;-85
2021/10/26 12:17:22;;;;;;;8.70;2.17;;;17.60;99.90;;;;;;6242501;23;20070;-85
2021/10/26 12:19:58;;;;;;;9.90;1.52;;;17.60;99.90;;;;;;6242253;23;20340;-84
2021/10/26 12:22:36;;;;;;;10.73;1.85;;;17.60;99.90;;;;;;6242033;23;20043;-84
2021/10/26 12:25:17;;;;;;;10.57;2.00;;;17.70;99.90;;;;;;6242917;23;20028;-84
2021/10/26 12:27:57;;;;;;;10.70;1.40;;;17.70;99.90;;;;;;6241626;23;20016;-85
2021/10/26 12:30:28;;;;;;;14.30;1.80;;;17.70;99.90;;;;;;6241922;23;20024;-84
2021/10/26 12:33:01;;;;;;;13.43;1.83;;;17.70;99.90;;;;;;6242305;23;20024;-85
2021/10/26 12:35:41;;;;;;;6.00;1.55;;;17.70;99.90;;;;;;6241130;23;20267;-85
2021/10/26 12:38:26;;;;;;;11.10;1.40;;;17.70;99.90;;;;;;6242013;23;20106;-84
2021/10/26 12:41:11;;;;;;;9.80;1.58;;;17.70;99.90;;;;;;6241840;23;20019;-85
2021/10/26 12:43:38;;;;;;;9.00;1.67;;;17.60;99.90;;;;;;6242277;23;20074;-84
2021/10/26 12:46:25;;;;;;;9.90;1.30;;;17.70;99.90;;;;;;6241897;23;20086;-83
2021/10/26 12:49:05;;;;;;;10.98;1.92;;;17.70;99.90;;;;;;6241864;23;20020;-86
2021/10/26 12:51:32;;;;;;;6.43;1.20;;;17.70;99.90;;;;;;6241782;23;20086;-84
2021/10/26 12:54:35;;;;;;;6.57;1.30;;;17.70;99.90;;;;;;6241777;23;20406;-84
2021/10/26 12:57:02;;;;;;;7.70;1.50;;;17.80;99.90;;;;;;6190468;23;20020;-84
2021/10/26 12:59:29;;;;;;;10.15;1.52;;;17.80;99.90;;;;;;6241396;23;20074;-83
2021/10/26 13:02:04;;;;;;;11.13;1.60;;;17.80;99.90;;;;;;6215601;23;20470;-86
2021/10/26 13:04:32;;;;;;;11.18;1.58;;;17.80;99.90;;;;;;6215084;23;20024;-84
2021/10/26 13:07:02;;;;;;;8.90;1.40;;;17.70;99.90;;;;;;6242183;23;20075;-84
2021/10/26 13:09:37;;;;;;;8.88;1.20;;;17.70;99.90;;;;;;6214863;23;20024;-84
2021/10/26 13:12:12;;;;;;;6.47;1.77;;;17.80;99.90;;;;;;6240930;23;20034;-81
2021/10/26 13:14:48;;;;;;;6.80;1.77;;;17.80;99.90;;;;;;6241817;23;20020;-84
2021/10/26 13:17:36;;;;;;;7.82;1.58;;;17.70;99.90;;;;;;6240184;23;20078;-85
2021/10/26 13:20:26;;;;;;;8.90;2.03;;;17.80;99.90;;;;;;6241169;23;20015;-85
2021/10/26 13:23:13;;;;;;;9.85;1.70;;;17.80;99.90;;;;;;6242080;23;20588;-85
2021/10/26 13:25:51;;;;;;;11.55;2.42;;;17.80;99.90;;;;;;6243925;23;20042;-86
2021/10/26 13:28:20;;;;;;;8.23;1.60;;;17.80;99.90;;;;;;6241232;23;20028;-83
2021/10/26 13:31:02;;;;;;;8.48;1.95;;;17.80;99.90;;;;;;6243369;23;20095;-85
2021/10/26 13:33:40;;;;;;;10.07;1.75;;;17.80;99.90;;;;;;6243726;23;20020;-86
2021/10/26 13:36:12;;;;;;;8.00;1.52;;;17.90;99.90;;;;;;6242622;23;20489;-85
2021/10/26 13:38:40;;;;;;;10.18;1.85;;;17.90;99.90;;;;;;6241821;23;20028;-86
2021/10/26 13:41:08;;;;;;;;;;;17.90;99.90;;;;;;6241826;23;20095;-86
2021/10/26 13:43:36;;;;;;;9.38;1.48;;;17.90;99.90;;;;;;6242497;23;20324;-83
2021/10/26 13:46:03;;;;;;;6.35;1.38;;;17.80;99.90;;;;;;6241764;23;20099;-83
2021/10/26 13:48:35;;;;;;;4.68;1.45;;;17.80;99.90;;;;;;6241829;23;20343;-84
2021/10/26 13:51:04;;;;;;;11.02;2.30;;;17.80;99.90;;;;;;6241604;23;20493;-83
2021/10/26 13:53:34;;;;;;;9.00;1.63;;;17.80;99.90;;;;;;6241447;23;20016;-84
2021/10/26 13:56:01;;;;;;;10.00;2.10;;;17.80;99.90;;;;;;6241645;23;20020;-83
2021/10/26 13:58:28;;;;;;;8.20;1.38;;;17.80;99.90;;;;;;6241122;23;20073;-83
2021/10/26 14:00:59;;;;;;;8.10;1.73;;;17.80;99.90;;;;;;6214553;23;20074;-84
2021/10/26 14:03:26;;;;;;;12.27;2.03;;;17.70;99.90;;;;;;6214498;23;20020;-84
2021/10/26 14:05:53;;;;;;;8.23;1.70;;;17.70;99.90;;;;;;6242004;23;20482;-85
2021/10/26 14:08:20;;;;;;;6.05;1.55;;;17.70;99.90;;;;;;6213755;23;20543;-86
2021/10/26 14:10:48;;;;;;;8.38;1.52;;;17.70;99.90;;;;;;6242253;23;20066;-84
2021/10/26 14:13:15;;;;;;;9.20;1.60;;;17.70;99.90;;;;;;6213978;23;20081;-85
2021/10/26 14:15:43;;;;;;;9.93;1.52;;;17.70;99.90;;;;;;6241810;23;20024;-83
2021/10/26 14:18:10;;;;;;;;;;;17.70;99.90;;;;;;6241734;23;20450;-82
2021/10/26 14:20:43;;;;;;;8.93;1.48;;;17.60;99.90;;;;;;6241770;23;19916;-85
2021/10/26 14:23:12;;;;;;;7.95;1.30;;;17.50;99.90;;;;;;6240892;23;20016;-84
2021/10/26 14:25:39;;;;;;;7.72;1.88;;;17.60;99.90;;;;;;6242040;23;20402;-83
2021/10/26 14:28:06;;;;;;;9.95;1.60;;;17.50;99.90;;;;;;6240792;23;20070;-85
2021/10/26 14:30:33;;;;;;;7.38;1.25;;;17.50;99.90;;;;;;6241794;23;20113;-84
2021/10/26 14:33:03;;;;;;;11.60;2.08;;;17.40;99.90;;;;;;6241789;23;20378;-84
2021/10/26 14:35:35;;;;;;;10.80;1.80;;;17.40;99.90;;;;;;6240740;23;20028;-83
2021/10/26 14:38:09;;;;;;;13.93;2.17;;;17.40;99.90;;;;;;6214501;23;20066;-83
2021/10/26 14:54:57;;;;;;;7.55;1.90;;;17.20;99.90;;;;;;6240638;23;20071;-84
2021/10/26 14:57:00;;;;;;;10.57;1.65;;;17.20;99.90;;;;;;6229106;23;20081;-84
2021/10/26 14:59:27;;;;;;;8.25;1.52;;;17.20;99.90;;;;;;6214115;23;20506;-84
2021/10/26 15:01:54;;;;;;;6.68;1.40;;;17.20;99.90;;;;;;6214015;23;20365;-87
2021/10/26 15:04:22;;;;;;;8.77;1.77;;;17.20;99.90;;;;;;6238961;23;20040;-87
2021/10/26 15:06:53;;;;;;;9.25;1.73;;;17.20;99.90;;;;;;6241117;23;20016;-85
2021/10/26 15:09:26;;;;;;;9.15;1.67;;;17.20;99.90;;;;;;6240502;23;20078;-83
2021/10/26 15:14:51;;;;;;;10.40;1.70;;;17.20;99.90;;;;;;6233465;23;20467;-83
2021/10/26 15:17:17;;;;;;;;;;;17.20;99.90;;;;;;6214162;23;20028;-83
2021/10/26 15:19:46;;;;;;;6.10;1.30;;;17.20;99.90;;;;;;6242114;23;20299;-84
2021/10/26 15:35:39;;;;;;;8.27;1.58;;;17.00;99.90;;;;;;6242248;23;20012;-83
2021/10/26 15:38:07;;;;;;;8.95;1.73;;;16.90;99.90;;;;;;6215512;23;20467;-82
2021/10/26 15:40:35;;;;;;;10.85;1.83;;;17.00;99.90;;;;;;6242870;23;20086;-84
2021/10/26 15:43:03;;;;;;;9.07;1.70;;;16.90;99.90;;;;;;6243067;23;20086;-84
2021/10/26 15:45:31;;;;;;;11.13;1.83;;;16.90;99.90;;;;;;6242921;23;20066;-84
2021/10/26 15:47:58;;;;;;;10.40;2.10;;;16.90;99.90;;;;;;6243462;23;20398;-85
2021/10/26 15:50:25;;;;;;;10.20;2.10;;;16.90;99.90;;;;;;6215489;23;20251;-85
2021/10/26 15:52:53;;;;;;;10.63;1.75;;;16.90;99.90;;;;;;6240925;23;20042;-85
2021/10/26 15:55:21;;;;;;;11.23;2.27;;;16.80;99.90;;;;;;6242567;23;20016;-85
2021/10/26 15:57:48;;;;;;;9.55;2.38;;;16.80;99.90;;;;;;6243106;23;20304;-85
2021/10/26 16:00:19;;;;;;;10.38;1.83;;;16.80;99.90;;;;;;6242553;23;20422;-84
2021/10/26 16:02:46;;;;;;;8.07;1.90;;;16.80;99.90;;;;;;6242299;23;20020;-84
2021/10/26 16:05:13;;;;;;;11.07;2.13;;;16.80;99.90;;;;;;6241309;23;20050;-86
2021/10/26 16:07:44;;;;;;;12.00;2.10;;;16.80;99.90;;;;;;6242810;23;20024;-84
2021/10/26 16:13:30;;;;;;;8.65;2.08;;;16.80;99.90;;;;;;6149135;23;20013;-85
2021/10/26 16:18:26;;;;;;;9.40;2.08;;;16.80;99.90;;;;;;6149684;23;20021;-86
2021/10/26 16:20:53;;;;;;;10.43;2.10;;;16.80;99.90;;;;;;6124931;23;20017;-84
2021/10/26 16:23:22;;;;;;;9.43;1.75;;;16.80;99.90;;;;;;6125092;23;20084;-84
2021/10/26 16:25:49;;;;;;;11.25;1.98;;;16.80;99.90;;;;;;6149841;23;20022;-84
2021/10/26 16:28:18;;;;;;;11.63;1.63;;;16.80;99.90;;;;;;6148937;23;20408;-85
2021/10/26 16:30:46;;;;;;;9.35;1.67;;;16.80;99.90;;;;;;6149620;23;20024;-85
2021/10/26 16:33:14;;;;;;;9.30;1.67;;;16.80;99.90;;;;;;6125324;23;20444;-86
2021/10/26 16:35:42;;;;;;;11.00;1.87;;;16.80;99.90;;;;;;6125318;23;20303;-85
2021/10/26 16:38:12;;;;;;;9.23;1.50;;;16.70;99.90;;;;;;6125180;23;20245;-84
2021/10/26 16:40:44;;;;;;;11.63;2.45;;;16.70;99.90;;;;;;6124996;23;20066;-86
2021/10/26 16:43:28;;;;;;;11.27;1.88;;;16.60;99.90;;;;;;6136663;23;20436;-86
2021/10/26 16:46:02;;;;;;;8.57;1.80;;;16.60;99.90;;;;;;6242527;23;20062;-85
2021/10/26 16:48:29;;;;;;;11.30;1.75;;;16.60;99.90;;;;;;6241945;23;20017;-82
2021/10/26 16:51:13;;;;;;;11.00;2.20;;;16.60;99.90;;;;;;6241627;23;20495;-83
2021/10/26 16:53:42;;;;;;;16.55;2.30;;;16.50;99.90;;;;;;6242569;23;20541;-83
2021/10/26 16:56:12;;;;;;;9.13;2.20;;;16.40;99.90;;;;;;6241496;23;20032;-82
2021/10/26 16:58:39;;;;;;;13.27;2.30;;;16.40;99.90;;;;;;6242040;23;20070;-83
2021/10/26 17:01:09;;;;;;;10.77;1.90;;;16.40;99.90;;;;;;6241043;23;20078;-83
2021/10/26 17:03:38;;;;;;;11.75;2.03;;;16.30;99.90;;;;;;6242649;23;20336;-83
2021/10/26 17:06:05;;;;;;;11.30;2.13;;;16.30;99.90;;;;;;6241379;23;20047;-83
2021/10/26 17:08:32;;;;;;;15.30;2.85;;;16.20;99.90;;;;;;6242266;23;20020;-83
2021/10/26 17:11:03;;;;;;;14.65;2.78;;;16.20;99.90;;;;;;6241851;23;20020;-83
2021/10/26 17:13:30;;;;;;;11.57;2.08;;;16.10;99.90;;;;;;6241744;23;20031;-84
2021/10/26 17:15:59;;;;;;;11.75;2.33;;;16.10;99.90;;;;;;6241423;23;20410;-83
2021/10/26 17:18:26;;;;;;;9.60;2.28;;;16.00;99.90;;;;;;6241348;23;20082;-83
2021/10/26 17:20:53;;;;;;;11.93;2.88;;;16.00;99.90;;;;;;6242311;23;20020;-83
2021/10/26 17:23:20;;;;;;;9.95;2.40;;;15.90;99.90;;;;;;6241151;23;20050;-86
2021/10/26 17:25:50;;;;;;;10.43;2.13;;;15.90;99.90;;;;;;6242134;23;20020;-84
2021/10/26 17:28:21;;;;;;;11.73;3.08;;;15.90;99.90;;;;;;6241558;23;20020;-83
2021/10/26 17:30:55;;;;;;;9.85;2.55;;;15.90;99.90;;;;;;6216139;23;20445;-83
2021/10/26 17:33:30;;;;;;;10.73;3.22;;;15.90;99.90;;;;;;6240932;23;20024;-83
2021/10/26 17:35:59;;;;;;;10.70;3.10;;;15.90;99.90;;;;;;6241585;23;20019;-84
2021/10/26 17:38:31;;;;;;;12.73;3.42;;;15.80;99.90;;;;;;6241718;23;20008;-83
2021/10/26 17:41:06;;;;;;;13.02;3.30;;;15.80;99.90;;;;;;6241190;23;20031;-84
2021/10/26 17:43:37;;;;;;;12.88;3.78;;;15.80;99.90;;;;;;6241050;23;20027;-83
2021/10/26 17:46:05;;;;;;;13.85;3.17;;;15.80;99.90;;;;;;6241071;23;20020;-82
2021/10/26 17:48:36;;;;;;;10.68;2.92;;;15.70;99.90;;;;;;6241868;23;20016;-84
2021/10/26 17:51:06;;;;;;;11.27;2.90;;;15.70;99.90;;;;;;6241215;23;20036;-84
2021/10/26 17:53:37;;;;;;;14.45;3.75;;;15.70;99.90;;;;;;6241534;23;20279;-84
2021/10/26 17:56:09;;;;;;;10.45;2.33;;;15.70;99.90;;;;;;6241832;23;20475;-84
2021/10/26 17:58:39;;;;;;;13.73;2.58;;;15.70;99.90;;;;;;6241182;23;20532;-83
2021/10/26 18:01:18;;;;;;;17.00;2.47;;;15.60;99.90;;;;;;6240239;23;20035;-84
2021/10/26 18:03:49;;;;;;;16.58;2.92;;;15.60;99.90;;;;;;6241780;23;20020;-83
2021/10/26 18:06:26;;;;;;;11.45;2.25;;;15.60;99.90;;;;;;6241380;23;20474;-84
2021/10/26 18:09:04;;;;;;;14.35;2.60;;;15.50;99.90;;;;;;6241671;23;20028;-85
2021/10/26 18:11:42;;;;;;;13.63;2.92;;;15.50;99.90;;;;;;6240983;23;20024;-85
2021/10/26 18:14:10;;;;;;;12.30;2.42;;;15.50;99.90;;;;;;6240994;23;20061;-85
2021/10/26 18:17:01;;;;;;;12.18;2.42;;;15.40;99.90;;;;;;6240939;23;20038;-85
2021/10/26 18:19:30;;;;;;;10.48;2.50;;;15.40;99.90;;;;;;6240276;23;20028;-85
2021/10/26 18:21:57;;;;;;;11.65;2.35;;;15.40;99.90;;;;;;6241796;23;20024;-85
2021/10/26 18:24:29;;;;;;;10.55;2.47;;;15.30;99.90;;;;;;6241341;23;20443;-85
2021/10/26 18:26:56;;;;;;;14.90;2.90;;;15.30;99.90;;;;;;6241262;23;20016;-85
2021/10/26 18:29:23;;;;;;;15.93;3.08;;;15.20;99.90;;;;;;6240188;23;20024;-85
2021/10/26 18:31:50;;;;;;;10.10;3.22;;;15.20;99.90;;;;;;6241630;23;20070;-85
2021/10/26 18:34:17;;;;;;;13.77;2.97;;;15.20;99.90;;;;;;6241075;23;20031;-85
2021/10/26 18:36:44;;;;;;;16.27;3.42;;;15.10;99.90;;;;;;6214623;23;20020;-85
2021/10/26 18:39:12;;;;;;;15.90;3.63;;;15.10;99.90;;;;;;6240689;23;20356;-84
2021/10/26 18:41:39;;;;;;;13.25;3.60;;;15.00;99.90;;;;;;6241245;23;20048;-85
2021/10/26 18:46:54;;;;;;;14.77;3.85;;;15.00;99.90;;;;;;6241681;23;20066;-84
2021/10/26 18:49:26;;;;;;;16.95;3.85;;;14.90;99.90;;;;;;6240593;23;20020;-84
2021/10/26 18:51:54;;;;;;;18.77;4.53;;;14.90;99.90;;;;;;6214060;23;20153;-85
2021/10/26 18:54:22;;;;;;;15.98;4.35;;;14.80;99.90;;;;;;6214305;23;20090;-85
2021/10/26 18:56:58;;;;;;;12.48;4.10;;;14.80;99.90;;;;;;6241287;23;20020;-85
2021/10/26 18:59:25;;;;;;;16.23;5.13;;;14.80;99.90;;;;;;6239915;23;20024;-85
2021/10/26 19:01:52;;;;;;;16.95;5.88;;;14.70;99.90;;;;;;6215575;23;20016;-85
2021/10/26 19:04:23;;;;;;;18.90;4.82;;;14.70;99.90;;;;;;6216530;23;20035;-85
2021/10/26 19:06:57;;;;;;;19.00;4.85;;;14.70;99.90;;;;;;6243635;23;20016;-85
2021/10/26 19:09:25;;;;;;;12.98;4.43;;;14.60;99.90;;;;;;6242223;23;20020;-85
2021/10/26 19:11:53;;;;;;;14.40;4.43;;;14.60;99.90;;;;;;6243978;23;20024;-85
2021/10/26 19:14:20;;;;;;;18.73;5.53;;;14.60;99.90;;;;;;6215561;23;20063;-84
2021/10/26 19:16:49;;;;;;;20.27;5.75;;;14.60;99.90;;;;;;6242905;23;20016;-85
2021/10/26 19:19:17;;;;;;;17.60;5.00;;;14.50;99.90;;;;;;6242523;23;20020;-84
2021/10/26 19:21:44;;;;;;;17.63;5.45;;;14.50;99.90;;;;;;6243170;23;20020;-85
2021/10/26 19:24:11;;;;;;;18.38;5.13;;;14.50;99.90;;;;;;6242521;23;20020;-84
2021/10/26 19:26:38;;;;;;;17.48;6.43;;;14.50;99.90;;;;;;6216336;23;20536;-85
2021/10/26 19:29:07;;;;;;;22.20;7.03;;;14.40;99.90;;;;;;6242071;23;20478;-84
2021/10/26 19:31:35;;;;;;;18.67;6.22;;;14.50;99.90;;;;;;6243070;23;20489;-85
2021/10/26 19:34:02;;;;;;;21.48;6.43;;;14.50;99.90;;;;;;6243270;23;20074;-85
2021/10/26 19:36:29;;;;;;;20.48;6.57;;;14.40;99.90;;;;;;6242673;23;20020;-85
2021/10/26 19:38:56;;;;;;;19.58;5.47;;;14.50;99.90;;;;;;6242829;23;20023;-85
2021/10/26 19:41:25;;;;;;;13.95;5.63;;;14.50;99.90;;;;;;6242161;23;20020;-85
2021/10/26 19:43:52;;;;;;;14.88;6.15;;;14.40;99.90;;;;;;6241969;23;20012;-85
2021/10/26 19:46:19;;;;;;;21.63;5.43;;;14.50;99.90;;;;;;6240889;23;20024;-85
2021/10/26 19:48:47;;;;;;;12.10;4.93;;;14.40;99.90;;;;;;6242852;23;20013;-85